Time,TemperatureF,DewpointF,PressureIn,WindDirection,WindDirectionDegrees,WindSpeedMPH,WindSpeedGustMPH,Humidity,HourlyPrecipIn,Conditions,Clouds,dailyrainin,SolarRadiationWatts/m^2,SoftwareType,DateUTC
2013-10-13 00:02:00,43.4,34.5,-100.00,NNE,13,10.7,15.2,70,0.00,,,-99.99,1.0,HOBO +U30 +Weather +,2013-10-13 06:02:00,
2013-10-13 00:05:00,43.4,34.2,-100.00,NNE,17,7.4,10.7,69,0.00,,,-99.99,1.0,HOBO +U30 +Weather +,2013-10-13 06:05:00,
2013-10-13 00:10:00,43.2,34.1,-100.00,NNE,15,6.3,9.6,69,0.00,,,-99.99,1.0,HOBO +U30 +Weather +,2013-10-13 06:10:00,
2013-10-13 00:15:00,43.0,34.0,-100.00,North,8,5.1,8.9,70,0.00,,,-99.99,1.0,HOBO +U30 +Weather +,2013-10-13 06:15:00,
2013-10-13 00:20:00,42.9,33.9,-100.00,North,7,5.6,7.8,70,0.00,,,-99.99,1.0,HOBO +U30 +Weather +,2013-10-13 06:20:00,
2013-10-13 00:25:00,42.9,33.8,-100.00,NNE,17,4.0,6.7,70,0.00,,,-99.99,1.0,HOBO +U30 +Weather +,2013-10-13 06:25:00,
2013-10-13 00:30:00,43.1,33.7,-100.00,NNE,25,4.5,8.9,69,0.00,,,-99.99,1.0,HOBO +U30 +Weather +,2013-10-13 06:30:00,
2013-10-13 00:35:00,43.0,33.6,-100.00,NNE,14,5.1,7.4,69,0.00,,,-99.99,1.0,HOBO +U30 +Weather +,2013-10-13 06:35:00,
2013-10-13 00:40:00,42.9,33.4,-100.00,NNE,14,6.7,10.1,68,0.00,,,-99.99,1.0,HOBO +U30 +Weather +,2013-10-13 06:40:00,
2013-10-13 00:45:00,42.7,33.3,-100.00,North,10,6.3,10.7,69,0.00,,,-99.99,1.0,HOBO +U30 +Weather +,2013-10-13 06:45:00,
2013-10-13 00:50:00,42.6,33.2,-100.00,North,8,6.7,11.2,69,0.00,,,-99.99,1.0,HOBO +U30 +Weather +,2013-10-13 06:50:00,
2013-10-13 00:55:00,42.4,33.2,-100.00,NNE,14,7.4,10.1,69,0.00,,,-99.99,1.0,HOBO +U30 +Weather +,2013-10-13 06:55:00,
2013-10-13 01:00:00,42.3,33.0,-100.00,NNE,13,8.5,11.9,69,0.00,,,-99.99,1.0,HOBO +U30 +Weather +,2013-10-13 07:00:00,
2013-10-13 01:05:00,42.2,32.9,-100.00,NNE,14,6.7,10.1,69,0.00,,,-99.99,1.0,HOBO +U30 +Weather +,2013-10-13 07:05:00,
2013-10-13 01:10:00,42.2,32.7,-100.00,NNE,13,6.7,11.2,68,0.00,,,-99.99,1.0,HOBO +U30 +Weather +,2013-10-13 07:10:00,
2013-10-13 01:15:00,42.3,32.6,-100.00,NNE,21,6.7,11.2,68,0.00,,,-99.99,1.0,HOBO +U30 +Weather +,2013-10-13 07:15:00,
2013-10-13 01:20:00,42.2,32.6,-100.00,NNE,29,5.6,10.7,68,0.00,,,-99.99,1.0,HOBO +U30 +Weather +,2013-10-13 07:20:00,
2013-10-13 01:25:00,41.9,32.6,-100.00,NNE,32,6.3,8.9,69,0.00,,,-99.99,1.0,HOBO +U30 +Weather +,2013-10-13 07:25:00,
2013-10-13 01:30:00,41.6,32.7,-100.00,NNE,29,5.6,7.8,70,0.00,,,-99.99,1.0,HOBO +U30 +Weather +,2013-10-13 07:30:00,
2013-10-13 01:35:00,41.3,32.7,-100.00,NNE,31,6.3,8.5,71,0.00,,,-99.99,1.0,HOBO +U30 +Weather +,2013-10-13 07:35:00,
2013-10-13 01:40:00,41.1,32.7,-100.00,NNE,31,6.3,8.5,71,0.00,,,-99.99,1.0,HOBO +U30 +Weather +,2013-10-13 07:40:00,
2013-10-13 01:45:00,40.9,32.7,-100.00,NNE,29,6.3,8.5,72,0.00,,,-99.99,1.0,HOBO +U30 +Weather +,2013-10-13 07:45:00,
2013-10-13 01:59:00,40.9,32.8,-100.00,NNE,27,6.3,8.9,72,0.00,,,-99.99,1.0,HOBO +U30 +Weather +,2013-10-13 07:59:00,
2013-10-13 02:00:00,40.8,32.8,-100.00,North,10,4.5,6.7,73,0.00,,,-99.99,1.0,HOBO +U30 +Weather +,2013-10-13 08:00:00,
2013-10-13 02:05:00,40.5,32.7,-100.00,NNE,15,2.2,4.0,73,0.00,,,-99.99,1.0,HOBO +U30 +Weather +,2013-10-13 08:05:00,
2013-10-13 02:10:00,40.2,32.6,-100.00,NNE,14,1.8,4.0,73,0.00,,,-99.99,1.0,HOBO +U30 +Weather +,2013-10-13 08:10:00,
2013-10-13 02:15:00,40.1,32.5,-100.00,North,355,3.4,5.6,74,0.00,,,-99.99,1.0,HOBO +U30 +Weather +,2013-10-13 08:15:00,
2013-10-13 02:20:00,40.0,32.3,-100.00,North,355,4.5,6.7,73,0.00,,,-99.99,1.0,HOBO +U30 +Weather +,2013-10-13 08:20:00,
2013-10-13 02:25:00,40.0,32.2,-100.00,North,7,4.5,6.7,73,0.00,,,-99.99,1.0,HOBO +U30 +Weather +,2013-10-13 08:25:00,
2013-10-13 02:30:00,40.2,32.2,-100.00,North,11,4.5,6.7,72,0.00,,,-99.99,1.0,HOBO +U30 +Weather +,2013-10-13 08:30:00,
2013-10-13 02:35:00,40.2,32.1,-100.00,North,10,5.1,6.7,72,0.00,,,-99.99,1.0,HOBO +U30 +Weather +,2013-10-13 08:35:00,
2013-10-13 02:40:00,40.1,32.0,-100.00,NNE,14,4.0,6.7,72,0.00,,,-99.99,1.0,HOBO +U30 +Weather +,2013-10-13 08:40:00,
2013-10-13 02:45:00,39.9,31.8,-100.00,NNE,21,3.4,5.1,72,0.00,,,-99.99,1.0,HOBO +U30 +Weather +,2013-10-13 08:45:00,
2013-10-13 02:50:00,39.7,31.7,-100.00,NNE,15,1.8,2.9,73,0.00,,,-99.99,1.0,HOBO +U30 +Weather +,2013-10-13 08:50:00,
2013-10-13 02:55:00,39.3,32.0,-100.00,NNE,14,1.8,3.4,74,0.00,,,-99.99,1.0,HOBO +U30 +Weather +,2013-10-13 08:55:00,
2013-10-13 03:00:00,38.7,32.1,-100.00,NNE,14,1.8,3.4,77,0.00,,,-99.99,1.0,HOBO +U30 +Weather +,2013-10-13 09:00:00,
2013-10-13 03:05:00,38.4,32.3,-100.00,NNE,14,2.9,4.0,78,0.00,,,-99.99,1.0,HOBO +U30 +Weather +,2013-10-13 09:05:00,
2013-10-13 03:10:00,38.6,32.2,-100.00,NNE,22,2.9,5.6,77,0.00,,,-99.99,1.0,HOBO +U30 +Weather +,2013-10-13 09:10:00,
2013-10-13 03:15:00,38.4,32.1,-100.00,NNE,22,2.2,3.4,77,0.00,,,-99.99,1.0,HOBO +U30 +Weather +,2013-10-13 09:15:00,
2013-10-13 03:20:00,38.6,32.0,-100.00,NE,41,3.4,5.1,77,0.00,,,-99.99,1.0,HOBO +U30 +Weather +,2013-10-13 09:20:00,
2013-10-13 03:25:00,38.5,32.1,-100.00,NE,38,2.9,4.5,77,0.00,,,-99.99,1.0,HOBO +U30 +Weather +,2013-10-13 09:25:00,
2013-10-13 03:30:00,38.6,32.0,-100.00,NE,41,2.9,4.5,77,0.00,,,-99.99,1.0,HOBO +U30 +Weather +,2013-10-13 09:30:00,
2013-10-13 03:35:00,38.2,32.1,-100.00,NE,44,2.9,4.0,78,0.00,,,-99.99,1.0,HOBO +U30 +Weather +,2013-10-13 09:35:00,
2013-10-13 03:40:00,37.8,32.3,-100.00,NE,44,2.2,3.4,80,0.00,,,-99.99,1.0,HOBO +U30 +Weather +,2013-10-13 09:40:00,
2013-10-13 03:45:00,37.7,32.1,-100.00,NNE,29,2.2,4.0,80,0.00,,,-99.99,1.0,HOBO +U30 +Weather +,2013-10-13 09:45:00,
2013-10-13 03:56:00,37.5,32.3,-100.00,NNE,22,1.8,2.9,81,0.00,,,-99.99,1.0,HOBO +U30 +Weather +,2013-10-13 09:56:00,
2013-10-13 04:00:00,37.7,32.1,-100.00,NE,51,2.9,4.0,80,0.00,,,-99.99,1.0,HOBO +U30 +Weather +,2013-10-13 10:00:00,
2013-10-13 04:05:00,38.0,32.1,-100.00,NE,56,2.9,4.0,79,0.00,,,-99.99,1.0,HOBO +U30 +Weather +,2013-10-13 10:05:00,
2013-10-13 04:10:00,37.7,32.2,-100.00,NE,56,2.9,4.0,80,0.00,,,-99.99,1.0,HOBO +U30 +Weather +,2013-10-13 10:10:00,
2013-10-13 04:15:00,37.7,32.0,-100.00,NE,56,2.2,3.4,79,0.00,,,-99.99,1.0,HOBO +U30 +Weather +,2013-10-13 10:15:00,
2013-10-13 04:20:00,37.5,31.9,-100.00,NE,56,0.7,2.2,80,0.00,,,-99.99,1.0,HOBO +U30 +Weather +,2013-10-13 10:20:00,
2013-10-13 04:25:00,37.0,31.6,-100.00,NE,56,0.0,0.7,80,0.00,,,-99.99,1.0,HOBO +U30 +Weather +,2013-10-13 10:25:00,
2013-10-13 04:30:00,37.1,31.7,-100.00,NE,56,0.0,0.0,80,0.00,,,-99.99,1.0,HOBO +U30 +Weather +,2013-10-13 10:30:00,
2013-10-13 04:35:00,37.1,31.8,-100.00,NE,56,0.0,0.0,80,0.00,,,-99.99,1.0,HOBO +U30 +Weather +,2013-10-13 10:35:00,
2013-10-13 04:40:00,36.8,32.0,-100.00,ENE,58,0.7,1.8,82,0.00,,,-99.99,1.0,HOBO +U30 +Weather +,2013-10-13 10:40:00,
2013-10-13 04:45:00,36.6,32.4,-100.00,ESE,115,0.7,1.8,84,0.00,,,-99.99,1.0,HOBO +U30 +Weather +,2013-10-13 10:45:00,
2013-10-13 04:50:00,36.2,32.1,-100.00,SSE,150,1.1,2.9,85,0.00,,,-99.99,1.0,HOBO +U30 +Weather +,2013-10-13 10:50:00,
2013-10-13 04:55:00,35.7,32.0,-100.00,South,183,0.7,2.9,86,0.00,,,-99.99,1.0,HOBO +U30 +Weather +,2013-10-13 10:55:00,
2013-10-13 05:00:00,35.7,32.2,-100.00,South,183,0.0,0.7,86,0.00,,,-99.99,1.0,HOBO +U30 +Weather +,2013-10-13 11:00:00,
2013-10-13 05:05:00,35.6,32.0,-100.00,South,183,0.7,1.8,86,0.00,,,-99.99,1.0,HOBO +U30 +Weather +,2013-10-13 11:05:00,
2013-10-13 05:10:00,35.5,31.9,-100.00,South,183,0.0,1.1,86,0.00,,,-99.99,1.0,HOBO +U30 +Weather +,2013-10-13 11:10:00,
2013-10-13 05:15:00,35.4,31.8,-100.00,South,183,0.0,1.1,86,0.00,,,-99.99,1.0,HOBO +U30 +Weather +,2013-10-13 11:15:00,
2013-10-13 05:20:00,35.0,31.5,-100.00,South,183,1.8,4.0,86,0.00,,,-99.99,1.0,HOBO +U30 +Weather +,2013-10-13 11:20:00,
2013-10-13 05:25:00,34.6,31.4,-100.00,South,190,2.2,4.0,88,0.00,,,-99.99,1.0,HOBO +U30 +Weather +,2013-10-13 11:25:00,
2013-10-13 05:30:00,35.0,31.9,-100.00,SSW,192,0.0,1.8,88,0.00,,,-99.99,1.0,HOBO +U30 +Weather +,2013-10-13 11:30:00,
2013-10-13 05:35:00,35.4,32.0,-100.00,SSW,192,0.0,0.7,87,0.00,,,-99.99,1.0,HOBO +U30 +Weather +,2013-10-13 11:35:00,
2013-10-13 05:40:00,35.0,31.5,-100.00,SSW,192,0.0,1.8,87,0.00,,,-99.99,1.0,HOBO +U30 +Weather +,2013-10-13 11:40:00,
2013-10-13 05:54:00,34.6,31.4,-100.00,SSW,192,0.0,1.1,88,0.00,,,-99.99,1.0,HOBO +U30 +Weather +,2013-10-13 11:54:00,
2013-10-13 05:55:00,34.5,31.6,-100.00,South,191,0.0,1.1,89,0.00,,,-99.99,1.0,HOBO +U30 +Weather +,2013-10-13 11:55:00,
2013-10-13 06:00:00,34.5,31.7,-100.00,ESE,105,0.0,1.1,89,0.00,,,-99.99,1.0,HOBO +U30 +Weather +,2013-10-13 12:00:00,
2013-10-13 06:05:00,34.9,32.2,-100.00,East,95,0.7,2.9,89,0.00,,,-99.99,1.0,HOBO +U30 +Weather +,2013-10-13 12:05:00,
2013-10-13 06:10:00,34.8,32.1,-100.00,East,94,0.0,1.1,89,0.00,,,-99.99,1.0,HOBO +U30 +Weather +,2013-10-13 12:10:00,
2013-10-13 06:15:00,34.6,31.8,-100.00,SSE,147,1.1,2.9,89,0.00,,,-99.99,1.0,HOBO +U30 +Weather +,2013-10-13 12:15:00,
2013-10-13 06:20:00,34.5,31.8,-100.00,South,191,1.8,3.4,89,0.00,,,-99.99,1.0,HOBO +U30 +Weather +,2013-10-13 12:20:00,
2013-10-13 06:25:00,34.4,31.7,-100.00,South,191,2.2,3.4,89,0.00,,,-99.99,1.0,HOBO +U30 +Weather +,2013-10-13 12:25:00,
2013-10-13 06:30:00,34.2,31.6,-100.00,SSW,194,2.2,4.0,90,0.00,,,-99.99,1.0,HOBO +U30 +Weather +,2013-10-13 12:30:00,
2013-10-13 06:35:00,34.2,31.7,-100.00,SSW,202,1.8,4.0,90,0.00,,,-99.99,1.0,HOBO +U30 +Weather +,2013-10-13 12:35:00,
2013-10-13 06:40:00,34.5,32.1,-100.00,SW,226,1.1,3.4,90,0.00,,,-99.99,1.0,HOBO +U30 +Weather +,2013-10-13 12:40:00,
2013-10-13 06:45:00,34.8,32.3,-100.00,SW,229,0.7,2.2,90,0.00,,,-99.99,1.0,HOBO +U30 +Weather +,2013-10-13 12:45:00,
2013-10-13 06:50:00,34.7,32.0,-100.00,WSW,241,1.1,2.9,89,0.00,,,-99.99,1.0,HOBO +U30 +Weather +,2013-10-13 12:50:00,
2013-10-13 06:55:00,34.4,31.8,-100.00,West,272,0.7,2.9,90,0.00,,,-99.99,1.0,HOBO +U30 +Weather +,2013-10-13 12:55:00,
2013-10-13 07:00:00,34.2,31.6,-100.00,West,275,1.1,2.9,90,0.00,,,-99.99,1.0,HOBO +U30 +Weather +,2013-10-13 13:00:00,
2013-10-13 07:05:00,34.2,31.7,-100.00,West,278,0.7,2.9,90,0.00,,,-99.99,1.0,HOBO +U30 +Weather +,2013-10-13 13:05:00,
2013-10-13 07:10:00,34.4,31.9,-100.00,West,278,1.1,2.9,90,0.00,,,-99.99,1.0,HOBO +U30 +Weather +,2013-10-13 13:10:00,
2013-10-13 07:15:00,34.4,31.9,-100.00,West,275,1.1,2.9,90,0.00,,,-99.99,1.0,HOBO +U30 +Weather +,2013-10-13 13:15:00,
2013-10-13 07:20:00,34.7,32.1,-100.00,WSW,258,1.8,3.4,90,0.00,,,-99.99,1.0,HOBO +U30 +Weather +,2013-10-13 13:20:00,
2013-10-13 07:25:00,35.0,32.2,-100.00,WSW,257,1.8,2.9,89,0.00,,,-99.99,1.0,HOBO +U30 +Weather +,2013-10-13 13:25:00,
2013-10-13 07:30:00,35.1,32.1,-100.00,WSW,257,1.1,2.2,88,0.00,,,-99.99,2.0,HOBO +U30 +Weather +,2013-10-13 13:30:00,
2013-10-13 07:35:00,34.9,31.9,-100.00,WSW,257,0.7,2.2,88,0.00,,,-99.99,6.0,HOBO +U30 +Weather +,2013-10-13 13:35:00,
2013-10-13 07:40:00,34.9,32.0,-100.00,WSW,257,0.0,1.8,88,0.00,,,-99.99,7.0,HOBO +U30 +Weather +,2013-10-13 13:40:00,
2013-10-13 07:52:00,35.2,32.2,-100.00,WSW,257,0.7,1.8,88,0.00,,,-99.99,9.0,HOBO +U30 +Weather +,2013-10-13 13:52:00,
2013-10-13 07:55:00,35.7,32.3,-100.00,WSW,257,0.0,0.7,87,0.00,,,-99.99,21.0,HOBO +U30 +Weather +,2013-10-13 13:55:00,
2013-10-13 08:00:00,35.5,32.3,-100.00,WSW,257,0.0,0.7,88,0.00,,,-99.99,28.0,HOBO +U30 +Weather +,2013-10-13 14:00:00,
2013-10-13 08:05:00,35.3,32.3,-100.00,WSW,257,0.0,0.7,88,0.00,,,-99.99,24.0,HOBO +U30 +Weather +,2013-10-13 14:05:00,
2013-10-13 08:10:00,35.3,32.3,-100.00,WSW,257,0.0,0.7,88,0.00,,,-99.99,24.0,HOBO +U30 +Weather +,2013-10-13 14:10:00,
2013-10-13 08:15:00,35.4,32.6,-100.00,WSW,257,0.0,0.7,89,0.00,,,-99.99,36.0,HOBO +U30 +Weather +,2013-10-13 14:15:00,
2013-10-13 08:20:00,35.1,32.3,-100.00,WSW,257,0.7,1.8,89,0.00,,,-99.99,46.0,HOBO +U30 +Weather +,2013-10-13 14:20:00,
2013-10-13 08:25:00,35.2,32.5,-100.00,WSW,251,0.7,2.9,89,0.00,,,-99.99,49.0,HOBO +U30 +Weather +,2013-10-13 14:25:00,
2013-10-13 08:30:00,35.2,32.5,-100.00,SSW,208,1.8,2.9,89,0.00,,,-99.99,63.0,HOBO +U30 +Weather +,2013-10-13 14:30:00,
2013-10-13 08:35:00,35.2,32.6,-100.00,SSW,201,1.1,2.2,89,0.00,,,-99.99,78.0,HOBO +U30 +Weather +,2013-10-13 14:35:00,
2013-10-13 08:40:00,35.8,33.1,-100.00,SSW,201,0.0,1.8,89,0.00,,,-99.99,84.0,HOBO +U30 +Weather +,2013-10-13 14:40:00,
2013-10-13 08:50:00,37.3,34.4,-100.00,SSW,201,0.0,1.8,89,0.00,,,-99.99,92.0,HOBO +U30 +Weather +,2013-10-13 14:50:00,
2013-10-13 08:51:00,36.9,34.1,-100.00,SSW,201,0.0,1.1,89,0.00,,,-99.99,86.0,HOBO +U30 +Weather +,2013-10-13 14:51:00,
2013-10-13 08:55:00,37.7,34.6,-100.00,SSW,201,0.0,0.7,88,0.00,,,-99.99,98.0,HOBO +U30 +Weather +,2013-10-13 14:55:00,
2013-10-13 09:00:00,36.6,33.5,-100.00,SSW,201,0.7,1.8,88,0.00,,,-99.99,101.0,HOBO +U30 +Weather +,2013-10-13 15:00:00,
2013-10-13 09:05:00,36.3,33.1,-100.00,SSE,166,1.8,3.4,88,0.00,,,-99.99,107.0,HOBO +U30 +Weather +,2013-10-13 15:05:00,
2013-10-13 09:10:00,36.6,33.5,-100.00,SSE,164,0.7,2.9,88,0.00,,,-99.99,118.0,HOBO +U30 +Weather +,2013-10-13 15:10:00,
2013-10-13 09:15:00,37.7,34.7,-100.00,SSE,164,0.0,0.7,88,0.00,,,-99.99,138.0,HOBO +U30 +Weather +,2013-10-13 15:15:00,
2013-10-13 09:20:00,38.2,34.6,-100.00,SSE,164,0.0,1.1,86,0.00,,,-99.99,148.0,HOBO +U30 +Weather +,2013-10-13 15:20:00,
2013-10-13 09:25:00,37.7,33.9,-100.00,SSE,167,1.1,2.9,85,0.00,,,-99.99,138.0,HOBO +U30 +Weather +,2013-10-13 15:25:00,
2013-10-13 09:30:00,38.0,34.3,-100.00,SSE,168,0.7,2.9,86,0.00,,,-99.99,138.0,HOBO +U30 +Weather +,2013-10-13 15:30:00,
2013-10-13 09:35:00,38.2,34.3,-100.00,SSE,168,0.7,2.9,85,0.00,,,-99.99,143.0,HOBO +U30 +Weather +,2013-10-13 15:35:00,
2013-10-13 09:40:00,38.8,35.3,-100.00,South,181,1.1,3.4,87,0.00,,,-99.99,143.0,HOBO +U30 +Weather +,2013-10-13 15:40:00,
2013-10-13 09:50:00,39.4,35.1,-100.00,South,191,0.0,1.1,84,0.00,,,-99.99,162.0,HOBO +U30 +Weather +,2013-10-13 15:50:00,
2013-10-13 09:55:00,40.0,35.0,-100.00,South,190,0.0,0.7,82,0.00,,,-99.99,159.0,HOBO +U30 +Weather +,2013-10-13 15:55:00,
2013-10-13 10:00:00,40.0,34.8,-100.00,South,188,0.0,1.1,81,0.00,,,-99.99,156.0,HOBO +U30 +Weather +,2013-10-13 16:00:00,
2013-10-13 10:05:00,39.2,33.7,-100.00,East,87,0.7,2.2,80,0.00,,,-99.99,172.0,HOBO +U30 +Weather +,2013-10-13 16:05:00,
2013-10-13 10:10:00,40.4,34.7,-100.00,ENE,76,0.0,2.2,79,0.00,,,-99.99,182.0,HOBO +U30 +Weather +,2013-10-13 16:10:00,
2013-10-13 10:15:00,40.7,34.5,-100.00,ENE,59,0.0,0.7,78,0.00,,,-99.99,189.0,HOBO +U30 +Weather +,2013-10-13 16:15:00,
2013-10-13 10:20:00,40.5,33.8,-100.00,ENE,59,0.7,4.0,76,0.00,,,-99.99,252.0,HOBO +U30 +Weather +,2013-10-13 16:20:00,
2013-10-13 10:25:00,40.9,34.6,-100.00,NE,45,2.9,5.6,78,0.00,,,-99.99,326.0,HOBO +U30 +Weather +,2013-10-13 16:25:00,
2013-10-13 10:30:00,40.9,34.0,-100.00,NNE,18,2.2,4.5,76,0.00,,,-99.99,373.0,HOBO +U30 +Weather +,2013-10-13 16:30:00,
2013-10-13 10:35:00,41.4,34.0,-100.00,NNE,25,3.4,6.7,74,0.00,,,-99.99,411.0,HOBO +U30 +Weather +,2013-10-13 16:35:00,
2013-10-13 10:49:00,41.9,33.8,-100.00,NE,37,4.0,6.7,72,0.00,,,-99.99,402.0,HOBO +U30 +Weather +,2013-10-13 16:49:00,
2013-10-13 10:50:00,43.5,33.9,-100.00,NNE,14,3.4,7.4,68,0.00,,,-99.99,281.0,HOBO +U30 +Weather +,2013-10-13 16:50:00,
2013-10-13 10:55:00,41.6,32.0,-100.00,NNE,31,5.1,10.7,68,0.00,,,-99.99,217.0,HOBO +U30 +Weather +,2013-10-13 16:55:00,
2013-10-13 11:00:00,41.6,32.0,-100.00,NE,34,4.0,6.7,68,0.00,,,-99.99,202.0,HOBO +U30 +Weather +,2013-10-13 17:00:00,
2013-10-13 11:05:00,41.2,31.9,-100.00,NE,37,4.0,7.8,69,0.00,,,-99.99,196.0,HOBO +U30 +Weather +,2013-10-13 17:05:00,
2013-10-13 11:10:00,41.7,32.3,-100.00,NNE,29,2.9,5.6,69,0.00,,,-99.99,187.0,HOBO +U30 +Weather +,2013-10-13 17:10:00,
2013-10-13 11:15:00,42.0,32.7,-100.00,NNE,21,3.4,6.3,69,0.00,,,-99.99,164.0,HOBO +U30 +Weather +,2013-10-13 17:15:00,
2013-10-13 11:20:00,42.1,32.9,-100.00,North,4,2.2,4.5,69,0.00,,,-99.99,151.0,HOBO +U30 +Weather +,2013-10-13 17:20:00,
2013-10-13 11:25:00,42.5,33.8,-100.00,North,4,1.1,4.0,71,0.00,,,-99.99,163.0,HOBO +U30 +Weather +,2013-10-13 17:25:00,
2013-10-13 11:30:00,43.2,34.1,-100.00,North,4,0.0,2.2,70,0.00,,,-99.99,202.0,HOBO +U30 +Weather +,2013-10-13 17:30:00,
2013-10-13 11:35:00,43.5,33.9,-100.00,North,1,0.0,1.8,68,0.00,,,-99.99,222.0,HOBO +U30 +Weather +,2013-10-13 17:35:00,
2013-10-13 11:48:00,42.7,32.7,-100.00,WNW,284,1.1,3.4,67,0.00,,,-99.99,188.0,HOBO +U30 +Weather +,2013-10-13 17:48:00,
2013-10-13 11:50:00,42.9,32.6,-100.00,WNW,298,1.1,4.0,66,0.00,,,-99.99,132.0,HOBO +U30 +Weather +,2013-10-13 17:50:00,
2013-10-13 11:55:00,42.3,31.9,-100.00,West,274,1.1,3.4,66,0.00,,,-99.99,122.0,HOBO +U30 +Weather +,2013-10-13 17:55:00,
2013-10-13 12:00:00,42.5,31.9,-100.00,WNW,296,1.8,5.1,65,0.00,,,-99.99,139.0,HOBO +U30 +Weather +,2013-10-13 18:00:00,
2013-10-13 12:05:00,42.4,31.7,-100.00,NNW,329,3.4,5.1,65,0.00,,,-99.99,142.0,HOBO +U30 +Weather +,2013-10-13 18:05:00,
2013-10-13 12:10:00,42.6,32.0,-100.00,NW,310,1.8,4.5,65,0.00,,,-99.99,123.0,HOBO +U30 +Weather +,2013-10-13 18:10:00,
2013-10-13 12:15:00,42.7,31.8,-100.00,NNW,330,1.1,2.9,65,0.00,,,-99.99,122.0,HOBO +U30 +Weather +,2013-10-13 18:15:00,
2013-10-13 12:20:00,42.9,31.9,-100.00,NW,316,0.0,2.9,64,0.00,,,-99.99,128.0,HOBO +U30 +Weather +,2013-10-13 18:20:00,
2013-10-13 12:25:00,43.3,32.2,-100.00,West,275,0.0,1.1,64,0.00,,,-99.99,132.0,HOBO +U30 +Weather +,2013-10-13 18:25:00,
2013-10-13 12:30:00,43.3,32.4,-100.00,WNW,299,0.7,3.4,65,0.00,,,-99.99,151.0,HOBO +U30 +Weather +,2013-10-13 18:30:00,
2013-10-13 12:35:00,43.3,32.2,-100.00,WNW,302,0.7,3.4,64,0.00,,,-99.99,132.0,HOBO +U30 +Weather +,2013-10-13 18:35:00,
2013-10-13 12:47:00,42.9,32.0,-100.00,WSW,248,2.2,5.1,65,0.00,,,-99.99,127.0,HOBO +U30 +Weather +,2013-10-13 18:47:00,
2013-10-13 12:50:00,43.2,32.3,-100.00,WSW,256,1.1,3.4,65,0.00,,,-99.99,108.0,HOBO +U30 +Weather +,2013-10-13 18:50:00,
2013-10-13 12:55:00,43.4,32.3,-100.00,NNW,329,2.2,4.5,64,0.00,,,-99.99,124.0,HOBO +U30 +Weather +,2013-10-13 18:55:00,
2013-10-13 13:00:00,43.2,32.1,-100.00,North,0,3.4,5.6,64,0.00,,,-99.99,126.0,HOBO +U30 +Weather +,2013-10-13 19:00:00,
2013-10-13 13:05:00,43.3,32.2,-100.00,North,3,3.4,5.6,64,0.00,,,-99.99,132.0,HOBO +U30 +Weather +,2013-10-13 19:05:00,
2013-10-13 13:10:00,43.5,32.3,-100.00,NNW,336,3.4,7.8,64,0.00,,,-99.99,127.0,HOBO +U30 +Weather +,2013-10-13 19:10:00,
2013-10-13 13:15:00,43.4,32.3,-100.00,NNW,347,4.5,7.8,64,0.00,,,-99.99,133.0,HOBO +U30 +Weather +,2013-10-13 19:15:00,
2013-10-13 13:20:00,43.4,32.3,-100.00,NNE,13,3.4,6.3,64,0.00,,,-99.99,151.0,HOBO +U30 +Weather +,2013-10-13 19:20:00,
2013-10-13 13:25:00,43.3,32.3,-100.00,NNE,21,2.9,5.6,65,0.00,,,-99.99,112.0,HOBO +U30 +Weather +,2013-10-13 19:25:00,
2013-10-13 13:30:00,43.5,32.9,-100.00,NNE,17,0.7,4.5,65,0.00,,,-99.99,122.0,HOBO +U30 +Weather +,2013-10-13 19:30:00,
2013-10-13 13:35:00,43.7,32.8,-100.00,NNE,22,1.8,4.5,65,0.00,,,-99.99,142.0,HOBO +U30 +Weather +,2013-10-13 19:35:00,
2013-10-13 13:46:00,43.9,32.8,-100.00,NNE,28,1.1,7.4,64,0.00,,,-99.99,164.0,HOBO +U30 +Weather +,2013-10-13 19:46:00,
2013-10-13 13:50:00,44.0,33.0,-100.00,North,4,3.4,6.3,65,0.00,,,-99.99,129.0,HOBO +U30 +Weather +,2013-10-13 19:50:00,
2013-10-13 13:55:00,44.0,33.2,-100.00,North,350,1.8,4.5,65,0.00,,,-99.99,126.0,HOBO +U30 +Weather +,2013-10-13 19:55:00,
2013-10-13 14:00:00,43.8,33.0,-100.00,NNW,347,2.9,4.5,65,0.00,,,-99.99,124.0,HOBO +U30 +Weather +,2013-10-13 20:00:00,
2013-10-13 14:05:00,44.3,33.6,-100.00,NNW,338,1.1,5.6,65,0.00,,,-99.99,122.0,HOBO +U30 +Weather +,2013-10-13 20:05:00,
2013-10-13 14:10:00,44.0,33.4,-100.00,North,3,4.0,6.3,66,0.00,,,-99.99,137.0,HOBO +U30 +Weather +,2013-10-13 20:10:00,
2013-10-13 14:15:00,43.7,33.4,-100.00,North,7,4.0,6.3,66,0.00,,,-99.99,143.0,HOBO +U30 +Weather +,2013-10-13 20:15:00,
2013-10-13 14:20:00,44.1,34.2,-100.00,North,6,1.1,4.0,67,0.00,,,-99.99,119.0,HOBO +U30 +Weather +,2013-10-13 20:20:00,
2013-10-13 14:25:00,44.0,33.7,-100.00,North,6,0.7,3.4,66,0.00,,,-99.99,124.0,HOBO +U30 +Weather +,2013-10-13 20:25:00,
2013-10-13 14:30:00,44.4,34.5,-100.00,North,6,0.0,2.2,67,0.00,,,-99.99,97.0,HOBO +U30 +Weather +,2013-10-13 20:30:00,
2013-10-13 14:35:00,43.9,33.8,-100.00,North,4,2.9,6.7,67,0.00,,,-99.99,83.0,HOBO +U30 +Weather +,2013-10-13 20:35:00,
2013-10-13 14:45:00,43.7,34.1,-100.00,North,355,2.9,5.1,68,0.00,,,-99.99,53.0,HOBO +U30 +Weather +,2013-10-13 20:45:00,
2013-10-13 14:50:00,43.7,34.1,-100.00,North,0,0.0,0.7,68,0.00,,,-99.99,29.0,HOBO +U30 +Weather +,2013-10-13 20:50:00,
2013-10-13 14:55:00,43.4,33.9,-100.00,NNW,348,1.8,3.4,69,0.00,,,-99.99,31.0,HOBO +U30 +Weather +,2013-10-13 20:55:00,
2013-10-13 15:00:00,43.3,34.3,-100.00,NNW,340,1.1,2.9,70,0.00,,,-99.99,32.0,HOBO +U30 +Weather +,2013-10-13 21:00:00,
2013-10-13 15:05:00,43.1,34.4,-100.00,NW,320,1.1,2.9,71,0.00,,,-99.99,39.0,HOBO +U30 +Weather +,2013-10-13 21:05:00,
2013-10-13 15:10:00,42.9,34.5,-100.00,NW,320,0.7,2.2,72,0.00,,,-99.99,38.0,HOBO +U30 +Weather +,2013-10-13 21:10:00,
2013-10-13 15:15:00,42.8,34.8,-100.00,NW,320,0.0,1.8,73,0.00,,,-99.99,32.0,HOBO +U30 +Weather +,2013-10-13 21:15:00,
2013-10-13 15:20:00,42.7,35.3,-100.00,NW,320,0.0,0.0,75,0.24,,,-99.99,27.0,HOBO +U30 +Weather +,2013-10-13 21:20:00,
2013-10-13 15:25:00,42.2,35.3,-100.00,SSW,206,1.1,4.0,76,0.14,,,-99.99,37.0,HOBO +U30 +Weather +,2013-10-13 21:25:00,
2013-10-13 15:30:00,41.8,34.6,-100.00,SSE,156,0.7,4.0,75,0.14,,,-99.99,51.0,HOBO +U30 +Weather +,2013-10-13 21:30:00,
2013-10-13 15:44:00,41.7,35.0,-100.00,NE,51,0.0,2.2,76,0.14,,,-99.99,62.0,HOBO +U30 +Weather +,2013-10-13 21:44:00,
2013-10-13 15:45:00,41.3,35.5,-100.00,WNW,291,0.7,2.2,79,0.00,,,-99.99,51.0,HOBO +U30 +Weather +,2013-10-13 21:45:00,
2013-10-13 15:50:00,41.4,36.1,-100.00,WNW,291,0.0,1.8,81,0.00,,,-99.99,52.0,HOBO +U30 +Weather +,2013-10-13 21:50:00,
2013-10-13 15:55:00,41.5,36.6,-100.00,WNW,291,0.0,1.1,82,0.14,,,-99.99,53.0,HOBO +U30 +Weather +,2013-10-13 21:55:00,
2013-10-13 16:00:00,41.3,36.4,-100.00,WNW,291,0.0,1.1,82,0.00,,,-99.99,49.0,HOBO +U30 +Weather +,2013-10-13 22:00:00,
2013-10-13 16:05:00,41.2,36.4,-100.00,WNW,291,0.0,1.8,82,0.00,,,-99.99,58.0,HOBO +U30 +Weather +,2013-10-13 22:05:00,
2013-10-13 16:10:00,41.2,36.6,-100.00,WNW,292,0.7,2.2,83,0.14,,,-99.99,78.0,HOBO +U30 +Weather +,2013-10-13 22:10:00,
2013-10-13 16:15:00,41.2,36.6,-100.00,WNW,292,1.1,2.2,83,0.00,,,-99.99,78.0,HOBO +U30 +Weather +,2013-10-13 22:15:00,
2013-10-13 16:20:00,41.3,37.0,-100.00,WNW,292,0.0,1.8,84,0.00,,,-99.99,56.0,HOBO +U30 +Weather +,2013-10-13 22:20:00,
2013-10-13 16:25:00,41.3,37.1,-100.00,WNW,292,0.7,2.2,85,0.00,,,-99.99,48.0,HOBO +U30 +Weather +,2013-10-13 22:25:00,
2013-10-13 16:30:00,41.1,37.0,-100.00,WNW,298,1.1,2.9,85,0.00,,,-99.99,57.0,HOBO +U30 +Weather +,2013-10-13 22:30:00,
2013-10-13 16:43:00,41.3,37.5,-100.00,WNW,300,0.0,2.2,86,0.00,,,-99.99,48.0,HOBO +U30 +Weather +,2013-10-13 22:43:00,
2013-10-13 16:45:00,41.2,37.3,-100.00,WNW,300,0.0,1.8,86,0.00,,,-99.99,42.0,HOBO +U30 +Weather +,2013-10-13 22:45:00,
2013-10-13 16:50:00,41.5,37.8,-100.00,WNW,300,0.0,0.7,86,0.00,,,-99.99,32.0,HOBO +U30 +Weather +,2013-10-13 22:50:00,
2013-10-13 16:55:00,41.4,37.8,-100.00,WNW,300,0.0,1.8,87,0.00,,,-99.99,29.0,HOBO +U30 +Weather +,2013-10-13 22:55:00,
2013-10-13 17:00:00,41.3,37.7,-100.00,WNW,300,0.0,1.8,87,0.00,,,-99.99,22.0,HOBO +U30 +Weather +,2013-10-13 23:00:00,
2013-10-13 17:05:00,41.3,37.8,-100.00,WNW,300,0.0,0.0,87,0.00,,,-99.99,17.0,HOBO +U30 +Weather +,2013-10-13 23:05:00,
2013-10-13 17:10:00,41.2,37.5,-100.00,WNW,300,0.0,1.8,86,0.00,,,-99.99,16.0,HOBO +U30 +Weather +,2013-10-13 23:10:00,
2013-10-13 17:15:00,41.1,37.5,-100.00,WNW,300,1.1,2.9,87,0.00,,,-99.99,14.0,HOBO +U30 +Weather +,2013-10-13 23:15:00,
2013-10-13 17:20:00,41.1,37.8,-100.00,NW,310,1.1,3.4,87,0.14,,,-99.99,18.0,HOBO +U30 +Weather +,2013-10-13 23:20:00,
2013-10-13 17:25:00,41.0,37.9,-100.00,NW,309,1.1,3.4,88,0.00,,,-99.99,21.0,HOBO +U30 +Weather +,2013-10-13 23:25:00,
2013-10-13 17:30:00,41.0,38.2,-100.00,NW,310,0.7,3.4,89,0.00,,,-99.99,19.0,HOBO +U30 +Weather +,2013-10-13 23:30:00,
2013-10-13 17:42:00,41.0,38.3,-100.00,NW,309,1.8,4.0,89,0.00,,,-99.99,24.0,HOBO +U30 +Weather +,2013-10-13 23:42:00,
2013-10-13 17:45:00,41.0,38.4,-100.00,WNW,302,2.2,5.6,90,0.00,,,-99.99,18.0,HOBO +U30 +Weather +,2013-10-13 23:45:00,
2013-10-13 17:50:00,41.1,38.6,-100.00,West,281,2.2,5.6,90,0.00,,,-99.99,14.0,HOBO +U30 +Weather +,2013-10-13 23:50:00,
2013-10-13 17:55:00,41.1,38.6,-100.00,West,274,2.2,5.1,90,0.00,,,-99.99,8.0,HOBO +U30 +Weather +,2013-10-13 23:55:00,
2013-10-13 18:00:00,41.3,38.7,-100.00,West,279,2.2,5.6,90,0.00,,,-99.99,6.0,HOBO +U30 +Weather +,2013-10-14 00:00:00,
2013-10-13 18:05:00,41.3,38.7,-100.00,WSW,253,1.8,4.0,90,0.00,,,-99.99,3.0,HOBO +U30 +Weather +,2013-10-14 00:05:00,
2013-10-13 18:10:00,41.4,38.8,-100.00,SW,229,1.8,4.5,90,0.00,,,-99.99,2.0,HOBO +U30 +Weather +,2013-10-14 00:10:00,
2013-10-13 18:15:00,41.5,38.9,-100.00,SW,225,0.0,1.8,90,0.00,,,-99.99,1.0,HOBO +U30 +Weather +,2013-10-14 00:15:00,
2013-10-13 18:20:00,41.7,39.2,-100.00,SW,225,0.0,0.0,90,0.00,,,-99.99,1.0,HOBO +U30 +Weather +,2013-10-14 00:20:00,
2013-10-13 18:25:00,41.8,39.3,-100.00,SW,225,0.0,0.0,90,0.00,,,-99.99,1.0,HOBO +U30 +Weather +,2013-10-14 00:25:00,
2013-10-13 18:30:00,41.8,39.2,-100.00,SW,225,0.0,2.2,90,0.00,,,-99.99,1.0,HOBO +U30 +Weather +,2013-10-14 00:30:00,
2013-10-13 18:40:00,41.7,39.1,-100.00,SW,223,0.0,1.8,90,0.00,,,-99.99,1.0,HOBO +U30 +Weather +,2013-10-14 00:40:00,
2013-10-13 18:41:00,41.9,39.3,-100.00,SW,225,0.0,0.7,90,0.00,,,-99.99,1.0,HOBO +U30 +Weather +,2013-10-14 00:41:00,
2013-10-13 18:45:00,41.5,39.0,-100.00,SSE,161,1.8,4.0,90,0.00,,,-99.99,1.0,HOBO +U30 +Weather +,2013-10-14 00:45:00,
2013-10-13 18:50:00,41.5,39.1,-100.00,SSE,166,1.1,2.9,91,0.00,,,-99.99,1.0,HOBO +U30 +Weather +,2013-10-14 00:50:00,
2013-10-13 18:55:00,41.5,39.3,-100.00,South,177,0.0,1.8,91,0.00,,,-99.99,1.0,HOBO +U30 +Weather +,2013-10-14 00:55:00,
2013-10-13 19:00:00,41.7,39.6,-100.00,South,177,0.7,3.4,92,0.00,,,-99.99,1.0,HOBO +U30 +Weather +,2013-10-14 01:00:00,
2013-10-13 19:05:00,41.6,39.5,-100.00,South,177,1.1,3.4,92,0.00,,,-99.99,1.0,HOBO +U30 +Weather +,2013-10-14 01:05:00,
2013-10-13 19:10:00,41.6,39.5,-100.00,South,175,0.7,2.9,92,0.00,,,-99.99,1.0,HOBO +U30 +Weather +,2013-10-14 01:10:00,
2013-10-13 19:15:00,41.6,39.7,-100.00,South,191,0.7,2.2,92,0.00,,,-99.99,1.0,HOBO +U30 +Weather +,2013-10-14 01:15:00,
2013-10-13 19:20:00,41.7,39.8,-100.00,SSW,201,1.8,3.4,92,0.00,,,-99.99,1.0,HOBO +U30 +Weather +,2013-10-14 01:20:00,
2013-10-13 19:25:00,41.7,39.8,-100.00,SSW,198,0.0,1.8,92,0.00,,,-99.99,1.0,HOBO +U30 +Weather +,2013-10-14 01:25:00,
2013-10-13 19:30:00,41.5,39.6,-100.00,SSE,167,1.1,3.4,92,0.00,,,-99.99,1.0,HOBO +U30 +Weather +,2013-10-14 01:30:00,
2013-10-13 19:40:00,41.4,39.6,-100.00,South,177,2.2,3.4,93,0.00,,,-99.99,1.0,HOBO +U30 +Weather +,2013-10-14 01:40:00,
2013-10-13 19:45:00,41.6,40.0,-100.00,South,181,0.0,1.1,93,0.00,,,-99.99,1.0,HOBO +U30 +Weather +,2013-10-14 01:45:00,
2013-10-13 19:50:00,42.0,40.4,-100.00,SSW,192,0.0,0.0,94,0.00,,,-99.99,1.0,HOBO +U30 +Weather +,2013-10-14 01:50:00,
2013-10-13 19:55:00,42.2,40.6,-100.00,SW,218,0.0,0.0,94,0.00,,,-99.99,1.0,HOBO +U30 +Weather +,2013-10-14 01:55:00,
2013-10-13 20:00:00,42.3,40.6,-100.00,West,260,0.0,1.8,93,0.00,,,-99.99,1.0,HOBO +U30 +Weather +,2013-10-14 02:00:00,
2013-10-13 20:05:00,42.8,41.1,-100.00,North,3,2.2,6.7,93,0.00,,,-99.99,1.0,HOBO +U30 +Weather +,2013-10-14 02:05:00,
2013-10-13 20:10:00,42.9,41.2,-100.00,NNE,21,2.2,5.6,93,0.00,,,-99.99,1.0,HOBO +U30 +Weather +,2013-10-14 02:10:00,
2013-10-13 20:15:00,43.0,41.4,-100.00,NNE,20,2.2,4.5,93,0.00,,,-99.99,1.0,HOBO +U30 +Weather +,2013-10-14 02:15:00,
2013-10-13 20:20:00,42.5,40.8,-100.00,East,80,0.7,2.9,93,0.00,,,-99.99,1.0,HOBO +U30 +Weather +,2013-10-14 02:20:00,
2013-10-13 20:25:00,42.5,40.9,-100.00,SE,136,0.0,1.8,93,0.00,,,-99.99,1.0,HOBO +U30 +Weather +,2013-10-14 02:25:00,
2013-10-13 20:39:00,42.5,40.9,-100.00,NE,39,0.0,2.2,93,0.00,,,-99.99,1.0,HOBO +U30 +Weather +,2013-10-14 02:39:00,
2013-10-13 20:40:00,43.2,41.7,-100.00,North,11,8.5,15.2,94,0.00,,,-99.99,1.0,HOBO +U30 +Weather +,2013-10-14 02:40:00,
2013-10-13 20:45:00,43.2,41.6,-100.00,North,11,8.9,14.5,94,0.00,,,-99.99,1.0,HOBO +U30 +Weather +,2013-10-14 02:45:00,
2013-10-13 20:50:00,43.2,41.5,-100.00,North,10,11.9,18.1,93,0.00,,,-99.99,1.0,HOBO +U30 +Weather +,2013-10-14 02:50:00,
2013-10-13 20:55:00,43.0,41.4,-100.00,North,1,8.9,13.4,94,0.00,,,-99.99,1.0,HOBO +U30 +Weather +,2013-10-14 02:55:00,
2013-10-13 21:00:00,43.0,41.3,-100.00,North,355,10.7,15.9,93,0.00,,,-99.99,1.0,HOBO +U30 +Weather +,2013-10-14 03:00:00,
2013-10-13 21:05:00,42.9,41.3,-100.00,North,10,7.8,14.1,93,0.00,,,-99.99,1.0,HOBO +U30 +Weather +,2013-10-14 03:05:00,
2013-10-13 21:10:00,42.7,41.1,-100.00,North,7,10.1,16.3,94,0.00,,,-99.99,1.0,HOBO +U30 +Weather +,2013-10-14 03:10:00,
2013-10-13 21:15:00,42.7,41.1,-100.00,North,6,9.6,16.3,93,0.00,,,-99.99,1.0,HOBO +U30 +Weather +,2013-10-14 03:15:00,
2013-10-13 21:20:00,42.6,41.1,-100.00,North,1,8.5,14.1,94,0.00,,,-99.99,1.0,HOBO +U30 +Weather +,2013-10-14 03:20:00,
2013-10-13 21:25:00,42.5,41.0,-100.00,North,4,8.9,13.4,94,0.00,,,-99.99,1.0,HOBO +U30 +Weather +,2013-10-14 03:25:00,
2013-10-13 21:38:00,42.4,41.0,-100.00,North,1,11.2,20.8,94,0.00,,,-99.99,1.0,HOBO +U30 +Weather +,2013-10-14 03:38:00,
2013-10-13 21:40:00,42.3,41.0,-100.00,North,7,10.7,17.4,95,0.00,,,-99.99,1.0,HOBO +U30 +Weather +,2013-10-14 03:40:00,
2013-10-13 21:45:00,42.2,41.0,-100.00,North,8,12.3,21.5,95,0.00,,,-99.99,1.0,HOBO +U30 +Weather +,2013-10-14 03:45:00,
2013-10-13 21:50:00,42.2,41.0,-100.00,North,8,14.1,19.7,95,0.00,,,-99.99,1.0,HOBO +U30 +Weather +,2013-10-14 03:50:00,
2013-10-13 21:55:00,42.2,40.9,-100.00,North,7,13.0,19.2,95,0.00,,,-99.99,1.0,HOBO +U30 +Weather +,2013-10-14 03:55:00,
2013-10-13 22:00:00,42.2,40.9,-100.00,North,7,11.2,17.4,95,0.00,,,-99.99,1.0,HOBO +U30 +Weather +,2013-10-14 04:00:00,
2013-10-13 22:05:00,42.2,40.9,-100.00,North,6,11.2,16.3,95,0.00,,,-99.99,1.0,HOBO +U30 +Weather +,2013-10-14 04:05:00,
2013-10-13 22:10:00,42.1,40.9,-100.00,North,354,7.4,12.3,95,0.00,,,-99.99,1.0,HOBO +U30 +Weather +,2013-10-14 04:10:00,
2013-10-13 22:15:00,42.1,41.0,-100.00,North,1,7.8,13.4,95,0.00,,,-99.99,1.0,HOBO +U30 +Weather +,2013-10-14 04:15:00,
2013-10-13 22:20:00,42.1,41.0,-100.00,North,0,8.5,15.2,95,0.00,,,-99.99,1.0,HOBO +U30 +Weather +,2013-10-14 04:20:00,
2013-10-13 22:25:00,42.2,41.1,-100.00,North,355,8.9,14.5,95,0.00,,,-99.99,1.0,HOBO +U30 +Weather +,2013-10-14 04:25:00,
2013-10-13 22:37:00,42.2,41.1,-100.00,North,1,8.9,15.9,95,0.00,,,-99.99,1.0,HOBO +U30 +Weather +,2013-10-14 04:37:00,
2013-10-13 22:40:00,42.3,41.2,-100.00,North,355,7.8,13.4,95,0.00,,,-99.99,1.0,HOBO +U30 +Weather +,2013-10-14 04:40:00,
2013-10-13 22:45:00,42.4,41.1,-100.00,North,4,8.9,15.2,95,0.00,,,-99.99,1.0,HOBO +U30 +Weather +,2013-10-14 04:45:00,
2013-10-13 22:50:00,42.4,41.1,-100.00,North,8,8.5,15.9,94,0.14,,,-99.99,1.0,HOBO +U30 +Weather +,2013-10-14 04:50:00,
2013-10-13 22:55:00,42.4,41.0,-100.00,North,7,8.9,15.2,94,0.00,,,-99.99,1.0,HOBO +U30 +Weather +,2013-10-14 04:55:00,
2013-10-13 23:00:00,42.3,40.9,-100.00,North,1,7.4,13.0,94,0.00,,,-99.99,1.0,HOBO +U30 +Weather +,2013-10-14 05:00:00,
2013-10-13 23:05:00,42.2,40.8,-100.00,North,7,8.9,15.9,94,0.00,,,-99.99,1.0,HOBO +U30 +Weather +,2013-10-14 05:05:00,
2013-10-13 23:10:00,42.2,40.7,-100.00,North,7,11.9,18.6,94,0.00,,,-99.99,1.0,HOBO +U30 +Weather +,2013-10-14 05:10:00,
2013-10-13 23:15:00,42.1,40.7,-100.00,North,6,6.3,10.1,94,0.00,,,-99.99,1.0,HOBO +U30 +Weather +,2013-10-14 05:15:00,
2013-10-13 23:20:00,42.1,40.7,-100.00,North,355,5.6,8.5,94,0.14,,,-99.99,1.0,HOBO +U30 +Weather +,2013-10-14 05:20:00,
2013-10-13 23:25:00,42.1,40.8,-100.00,North,351,7.8,13.0,94,0.00,,,-99.99,1.0,HOBO +U30 +Weather +,2013-10-14 05:25:00,
2013-10-13 23:30:00,42.0,40.7,-100.00,North,355,7.8,12.3,95,0.00,,,-99.99,1.0,HOBO +U30 +Weather +,2013-10-14 05:30:00,
2013-10-13 23:35:00,42.1,40.7,-100.00,North,7,9.6,14.1,94,0.00,,,-99.99,1.0,HOBO +U30 +Weather +,2013-10-14 05:35:00,
2013-10-13 23:40:00,41.8,40.4,-100.00,North,4,10.1,14.5,94,0.00,,,-99.99,1.0,HOBO +U30 +Weather +,2013-10-14 05:40:00,
2013-10-13 23:45:00,41.6,40.2,-100.00,North,7,10.7,15.2,94,0.00,,,-99.99,1.0,HOBO +U30 +Weather +,2013-10-14 05:45:00,
2013-10-13 23:50:00,41.5,40.1,-100.00,North,6,9.6,19.2,94,0.14,,,-99.99,1.0,HOBO +U30 +Weather +,2013-10-14 05:50:00,
2013-10-13 23:55:00,41.3,39.9,-100.00,North,7,10.7,16.3,94,0.00,,,-99.99,1.0,HOBO +U30 +Weather +,2013-10-14 05:55:00,